createdAt,value
2023-02-28T00:00:23.859Z,96394.41
2023-02-28T00:02:26.684Z,96294.25
2023-02-28T00:04:29.492Z,96397.09
2023-02-28T00:06:32.332Z,96370.06
2023-02-28T00:08:35.540Z,96396.44
2023-02-28T00:10:40.502Z,96334.34
2023-02-28T00:12:43.406Z,96334.69
2023-02-28T00:14:46.184Z,96366.16
2023-02-28T00:16:48.992Z,96386.25
2023-02-28T00:18:52.042Z,96385.94
2023-02-28T00:20:54.856Z,96365.16
2023-02-28T00:22:58.034Z,96385.41
2023-02-28T00:25:00.766Z,96394.16
2023-02-28T00:27:04.969Z,96396.78
2023-02-28T00:29:07.737Z,96388.22
2023-02-28T00:31:10.524Z,96389.72
2023-02-28T00:33:13.531Z,96388.72
2023-02-28T00:35:16.823Z,96377.34
2023-02-28T00:37:19.660Z,96379.34
2023-02-28T00:39:22.800Z,96388.91
2023-02-28T00:41:25.553Z,96384.13
2023-02-28T00:43:29.680Z,96381.66
2023-02-28T00:45:32.615Z,96383.97
2023-02-28T00:47:35.452Z,96381.66
2023-02-28T00:49:38.311Z,96318.38
2023-02-28T00:51:41.021Z,96379.66
2023-02-28T00:53:43.700Z,96375.03
2023-02-28T00:55:46.415Z,96380.66
2023-02-28T00:57:49.133Z,96377.50
2023-02-28T00:59:55.137Z,96383.75
2023-02-28T01:01:57.865Z,96385.50
2023-02-28T01:04:00.616Z,96384.69
2023-02-28T01:06:03.369Z,96378.94
2023-02-28T01:08:07.268Z,96360.44
2023-02-28T01:10:11.604Z,96389.06
2023-02-28T01:12:14.362Z,96388.66
2023-02-28T01:14:18.949Z,96380.41
2023-02-28T01:16:23.954Z,96386.03
2023-02-28T01:18:27.046Z,96376.34
2023-02-28T01:20:29.805Z,96380.25
2023-02-28T01:22:32.528Z,96381.72
2023-02-28T01:24:35.330Z,96226.44
2023-02-28T01:26:38.108Z,96370.13
2023-02-28T01:28:43.822Z,96365.59
2023-02-28T01:30:50.119Z,96361.09
2023-02-28T01:32:54.491Z,96376.56
2023-02-28T01:34:57.243Z,96371.75
2023-02-28T01:37:00.510Z,96281.72
2023-02-28T01:39:03.227Z,96368.34
2023-02-28T01:41:06.737Z,96364.22
2023-02-28T01:43:22.272Z,96369.69
2023-02-28T01:45:29.202Z,96302.47
2023-02-28T01:47:35.068Z,96359.69
2023-02-28T01:49:39.424Z,96359.69
2023-02-28T01:51:51.473Z,96366.34
2023-02-28T01:53:58.487Z,96341.56
2023-02-28T01:56:02.102Z,96350.31
2023-02-28T01:58:08.154Z,96351.09
2023-02-28T02:00:15.329Z,96356.63
2023-02-28T02:02:25.340Z,96374.88
2023-02-28T02:04:34.386Z,96368.06
2023-02-28T02:06:42.409Z,96355.97
2023-02-28T02:08:46.601Z,96365.00
2023-02-28T02:10:54.308Z,96362.88
2023-02-28T02:13:13.767Z,96358.75
2023-02-28T02:15:19.295Z,96279.69
2023-02-28T02:17:30.328Z,96352.03
2023-02-28T02:19:55.387Z,96349.50
2023-02-28T02:22:23.831Z,96296.28
2023-02-28T02:24:49.980Z,96341.09
2023-02-28T02:27:22.331Z,96347.25
2023-02-28T02:29:56.337Z,96342.81
2023-02-28T02:32:25.052Z,96301.81
2023-02-28T02:34:42.390Z,96339.09
2023-02-28T02:36:53.087Z,96249.16
2023-02-28T02:39:04.016Z,96336.81
2023-02-28T02:41:14.874Z,96341.31
2023-02-28T02:43:22.561Z,96150.34
2023-02-28T02:45:29.276Z,96344.44
2023-02-28T02:47:34.209Z,96229.53
2023-02-28T02:49:43.929Z,96297.53
2023-02-28T02:51:49.581Z,96340.81
2023-02-28T02:53:57.529Z,96335.78
2023-02-28T02:56:03.620Z,96346.09
2023-02-28T02:58:12.816Z,96332.81
2023-02-28T03:00:19.632Z,96322.66
2023-02-28T03:02:26.185Z,96339.69
2023-02-28T03:04:35.051Z,96303.03
2023-02-28T03:06:39.268Z,96347.09
2023-02-28T03:08:41.998Z,96277.13
2023-02-28T03:10:47.632Z,96352.91
2023-02-28T03:13:04.288Z,96347.97
2023-02-28T03:15:20.391Z,96342.44
2023-02-28T03:17:40.389Z,96352.91
2023-02-28T03:19:53.523Z,96344.69
2023-02-28T03:22:15.679Z,96340.41
2023-02-28T03:24:25.275Z,96336.88
2023-02-28T03:26:29.554Z,96310.50
2023-02-28T03:28:41.197Z,96343.00
2023-02-28T03:30:54.798Z,96343.72
2023-02-28T03:33:00.474Z,96335.28
2023-02-28T03:35:09.489Z,96229.59
2023-02-28T03:37:20.247Z,96327.63
2023-02-28T03:39:26.377Z,96333.84
2023-02-28T03:41:35.019Z,96322.66
2023-02-28T03:43:42.947Z,96323.00
2023-02-28T03:45:48.354Z,96326.19
2023-02-28T03:47:55.571Z,96252.84
2023-02-28T03:50:03.539Z,96328.72
2023-02-28T03:52:09.347Z,96330.50
2023-02-28T03:54:17.796Z,96334.91
2023-02-28T03:56:24.641Z,96305.34
2023-02-28T03:58:32.815Z,96261.00
2023-02-28T04:00:40.171Z,96328.09
2023-02-28T04:02:43.072Z,96304.25
2023-02-28T04:04:46.126Z,96328.16
2023-02-28T04:06:52.354Z,96328.03
2023-02-28T04:08:55.201Z,96257.72
2023-02-28T04:11:04.110Z,96334.91
2023-02-28T04:13:06.835Z,96333.06
2023-02-28T04:15:11.490Z,96324.44
2023-02-28T04:17:14.265Z,96323.63
2023-02-28T04:19:17.336Z,96335.88
2023-02-28T04:21:22.071Z,96250.94
2023-02-28T04:23:24.854Z,96203.78
2023-02-28T04:25:27.561Z,96337.00
2023-02-28T04:27:32.851Z,96315.38
2023-02-28T04:29:35.661Z,96339.47
2023-02-28T04:31:38.899Z,96329.00
2023-02-28T04:33:41.793Z,96334.97
2023-02-28T04:35:44.525Z,96329.72
2023-02-28T04:37:47.273Z,96298.66
2023-02-28T04:39:50.022Z,96312.94
2023-02-28T04:41:52.867Z,96323.13
2023-02-28T04:43:57.619Z,96291.88
2023-02-28T04:46:04.067Z,96321.13
2023-02-28T04:48:06.887Z,96327.88
2023-02-28T04:50:10.863Z,96314.81
2023-02-28T04:52:14.237Z,96328.91
2023-02-28T04:54:17.064Z,96327.75
2023-02-28T04:56:20.360Z,96265.97
2023-02-28T04:58:24.003Z,96302.84
2023-02-28T05:00:28.293Z,96293.59
2023-02-28T05:02:31.121Z,96323.28
2023-02-28T05:04:35.154Z,96327.06
2023-02-28T05:06:38.010Z,96322.78
2023-02-28T05:08:41.311Z,96336.44
2023-02-28T05:10:44.071Z,96341.09
2023-02-28T05:12:46.866Z,96339.16
2023-02-28T05:14:49.593Z,96337.59
2023-02-28T05:16:53.807Z,96338.44
2023-02-28T05:18:56.616Z,96330.88
2023-02-28T05:20:59.545Z,96346.00
2023-02-28T05:23:04.401Z,96339.75
2023-02-28T05:25:08.724Z,96223.03
2023-02-28T05:27:11.911Z,96341.06
2023-02-28T05:29:14.709Z,96341.72
2023-02-28T05:31:17.881Z,96338.59
2023-02-28T05:33:21.958Z,96343.03
2023-02-28T05:35:25.116Z,96338.72
2023-02-28T05:37:27.968Z,96335.06
2023-02-28T05:39:30.695Z,96340.91
2023-02-28T05:41:33.479Z,96341.72
2023-02-28T05:43:36.572Z,96335.66
2023-02-28T05:45:39.299Z,96331.53
2023-02-28T05:47:42.027Z,96335.31
2023-02-28T05:49:46.057Z,96328.09
2023-02-28T05:51:48.737Z,96338.63
2023-02-28T05:53:51.458Z,96346.69
2023-02-28T05:55:54.222Z,96343.56
2023-02-28T05:57:57.368Z,96332.16
2023-02-28T06:00:00.125Z,96345.34
2023-02-28T06:02:02.885Z,96345.69
2023-02-28T06:04:08.323Z,96339.09
2023-02-28T06:06:12.918Z,96342.75
2023-02-28T06:08:15.664Z,96344.06
2023-02-28T06:10:18.489Z,96349.28
2023-02-28T06:12:21.260Z,96352.56
2023-02-28T06:14:24.011Z,96358.09
2023-02-28T06:16:27.191Z,96358.84
2023-02-28T06:18:30.072Z,96371.69
2023-02-28T06:20:32.844Z,96369.44
2023-02-28T06:22:37.495Z,96272.94
2023-02-28T06:24:40.208Z,96370.28
2023-02-28T06:26:42.950Z,96373.72
2023-02-28T06:28:45.694Z,96328.47
2023-02-28T06:30:48.472Z,96369.06
2023-02-28T06:32:51.283Z,96377.31
2023-02-28T06:34:54.291Z,96369.84
2023-02-28T06:36:57.027Z,96375.00
2023-02-28T06:39:01.145Z,96375.19
2023-02-28T06:41:05.227Z,96384.38
2023-02-28T06:43:08.000Z,96372.00
2023-02-28T06:45:11.777Z,96381.88
2023-02-28T06:47:14.530Z,96381.94
2023-02-28T06:49:17.574Z,96338.59
2023-02-28T06:51:23.216Z,96386.06
2023-02-28T06:53:26.142Z,96386.53
2023-02-28T06:55:30.811Z,96382.28
2023-02-28T06:57:35.279Z,96379.31
2023-02-28T06:59:38.158Z,96389.19
2023-02-28T07:01:41.101Z,96393.31
2023-02-28T07:03:43.964Z,96390.50
2023-02-28T07:05:47.206Z,96378.03
2023-02-28T07:07:49.971Z,96381.28
2023-02-28T07:09:52.724Z,96388.22
2023-02-28T07:11:56.780Z,96386.94
2023-02-28T07:14:00.139Z,96399.75
2023-02-28T07:16:04.586Z,96346.03
2023-02-28T07:18:07.355Z,96391.19
2023-02-28T07:20:11.137Z,96400.91
2023-02-28T07:22:15.875Z,96404.03
2023-02-28T07:24:19.021Z,96404.03
2023-02-28T07:26:22.442Z,96388.22
2023-02-28T07:28:26.917Z,96398.56
2023-02-28T07:30:29.817Z,96387.88
2023-02-28T07:32:32.539Z,96407.34
2023-02-28T07:34:35.290Z,96393.84
2023-02-28T07:36:37.992Z,96397.47
2023-02-28T07:38:40.718Z,96394.34
2023-02-28T07:40:43.538Z,96396.66
2023-02-28T07:42:46.604Z,96383.63
2023-02-28T07:44:54.596Z,96397.78
2023-02-28T07:46:57.364Z,96410.97
2023-02-28T07:49:00.959Z,96355.63
2023-02-28T07:51:04.512Z,96405.06
2023-02-28T07:53:07.249Z,96402.41
2023-02-28T07:55:11.322Z,96287.44
2023-02-28T07:57:14.128Z,96407.53
2023-02-28T07:59:16.878Z,96241.34
2023-02-28T08:01:21.386Z,96399.09
2023-02-28T08:03:25.168Z,96409.00
2023-02-28T08:05:27.925Z,96414.28
2023-02-28T08:07:30.670Z,96404.06
2023-02-28T08:09:33.544Z,96420.53
2023-02-28T08:11:37.234Z,96407.34
2023-02-28T08:13:40.013Z,96418.88
2023-02-28T08:15:43.151Z,96408.84
2023-02-28T08:17:47.293Z,96411.31
2023-02-28T08:19:51.221Z,96423.81
2023-02-28T08:21:53.975Z,96432.72
2023-02-28T08:23:57.784Z,96434.03
2023-02-28T08:26:00.524Z,96432.53
2023-02-28T08:28:03.336Z,96428.56
2023-02-28T08:30:07.139Z,96364.19
2023-02-28T08:32:23.561Z,96438.63
2023-02-28T08:34:32.863Z,96426.59
2023-02-28T08:36:35.624Z,96438.00
2023-02-28T08:38:39.342Z,96422.63
2023-02-28T08:40:42.393Z,96434.97
2023-02-28T08:42:45.078Z,96433.16
2023-02-28T08:44:47.911Z,96423.72
2023-02-28T08:46:50.642Z,96442.38
2023-02-28T08:48:54.558Z,96437.25
2023-02-28T08:51:07.117Z,96438.72
2023-02-28T08:53:10.660Z,96430.34
2023-02-28T08:55:13.393Z,96448.59
2023-02-28T08:57:16.177Z,96408.41
2023-02-28T08:59:18.920Z,96454.19
2023-02-28T09:01:24.039Z,96428.00
2023-02-28T09:03:27.948Z,96444.13
2023-02-28T09:05:30.920Z,96448.03
2023-02-28T09:07:34.980Z,96452.38
2023-02-28T09:09:37.719Z,96452.50
2023-02-28T09:11:40.452Z,96386.16
2023-02-28T09:13:43.392Z,96453.03
2023-02-28T09:15:46.474Z,96431.94
2023-02-28T09:17:49.219Z,96461.38
2023-02-28T09:19:51.932Z,96455.13
2023-02-28T09:21:54.666Z,96456.66
2023-02-28T09:23:58.887Z,96464.94
2023-02-28T09:26:01.694Z,96456.81
2023-02-28T09:28:05.273Z,96347.78
2023-02-28T09:30:09.899Z,96458.78
2023-02-28T09:32:12.651Z,96455.66
2023-02-28T09:34:15.423Z,96447.25
2023-02-28T09:36:18.272Z,96428.13
2023-02-28T09:38:21.038Z,96455.28
2023-02-28T09:40:27.676Z,96410.09
2023-02-28T09:42:34.385Z,96461.09
2023-02-28T09:44:41.558Z,96468.66
2023-02-28T09:46:48.089Z,96466.59
2023-02-28T09:48:52.536Z,96463.78
2023-02-28T09:51:02.957Z,96463.25
2023-02-28T09:53:13.187Z,96465.94
2023-02-28T09:55:23.935Z,96460.75
2023-02-28T09:57:35.898Z,96464.06
2023-02-28T10:00:00.709Z,96463.38
2023-02-28T10:02:13.142Z,96355.50
2023-02-28T10:04:31.326Z,96478.47
2023-02-28T10:06:38.791Z,96481.06
2023-02-28T10:08:48.157Z,96469.72
2023-02-28T10:10:54.353Z,96469.56
2023-02-28T10:13:01.073Z,96484.13
2023-02-28T10:15:05.689Z,96483.66
2023-02-28T10:17:14.548Z,96445.19
2023-02-28T10:19:22.631Z,96489.28
2023-02-28T10:21:29.944Z,96433.75
2023-02-28T10:23:37.565Z,96486.94
2023-02-28T10:25:41.687Z,96482.59
2023-02-28T10:27:45.045Z,96488.34
2023-02-28T10:29:51.415Z,96490.34
2023-02-28T10:31:54.173Z,96502.47
2023-02-28T10:33:57.215Z,96481.50
2023-02-28T10:36:00.331Z,96484.97
2023-02-28T10:38:16.634Z,96399.25
2023-02-28T10:40:33.696Z,96476.56
2023-02-28T10:42:39.884Z,96472.84
2023-02-28T10:44:42.694Z,96489.84
2023-02-28T10:46:47.643Z,96490.59
2023-02-28T10:49:02.466Z,96491.03
2023-02-28T10:51:07.806Z,96468.75
2023-02-28T10:53:36.178Z,96422.59
2023-02-28T10:55:44.844Z,96487.94
2023-02-28T10:57:49.134Z,96484.47
2023-02-28T10:59:53.400Z,96492.72
2023-02-28T11:01:58.054Z,96489.63
2023-02-28T11:04:01.219Z,96489.69
2023-02-28T11:06:09.850Z,96490.31
2023-02-28T11:08:16.060Z,96496.91
2023-02-28T11:10:22.888Z,96487.97
2023-02-28T11:12:29.189Z,96502.50
2023-02-28T11:14:35.181Z,96474.44
2023-02-28T11:16:39.628Z,96469.59
2023-02-28T11:18:49.586Z,96496.91
2023-02-28T11:20:55.465Z,96507.69
2023-02-28T11:22:59.659Z,96502.94
2023-02-28T11:25:04.515Z,96507.34
2023-02-28T11:27:08.357Z,96504.41
2023-02-28T11:29:15.279Z,96463.22
2023-02-28T11:31:23.266Z,96505.41
2023-02-28T11:33:30.485Z,96503.38
2023-02-28T11:35:40.329Z,96504.75
2023-02-28T11:37:43.233Z,96511.03
2023-02-28T11:39:47.022Z,96497.94
2023-02-28T11:42:04.163Z,96500.22
2023-02-28T11:44:25.059Z,96488.28
2023-02-28T11:46:35.811Z,96472.91
2023-02-28T11:48:48.538Z,96491.69
2023-02-28T11:51:04.192Z,96486.59
2023-02-28T11:53:16.585Z,96490.63
2023-02-28T11:55:23.354Z,96476.50
2023-02-28T11:57:38.108Z,96477.50
2023-02-28T11:59:56.204Z,96475.47
2023-02-28T12:02:18.284Z,96490.41
2023-02-28T12:04:29.287Z,96489.50
2023-02-28T12:06:41.237Z,96495.88
2023-02-28T12:08:52.319Z,96476.47
2023-02-28T12:11:06.619Z,96489.47
2023-02-28T12:13:20.784Z,96479.91
2023-02-28T12:15:37.886Z,96481.88
2023-02-28T12:17:53.239Z,96478.13
2023-02-28T12:20:09.942Z,96481.00
2023-02-28T12:22:32.046Z,96460.91
2023-02-28T12:25:06.351Z,96478.34
2023-02-28T12:27:13.964Z,96381.03
2023-02-28T12:29:22.632Z,96478.53
2023-02-28T12:31:31.332Z,96479.09
2023-02-28T12:33:37.557Z,96468.13
2023-02-28T12:35:48.289Z,96474.31
2023-02-28T12:37:59.713Z,96436.72
2023-02-28T12:40:07.380Z,96420.28
2023-02-28T12:42:15.268Z,96466.13
2023-02-28T12:44:22.473Z,96458.97
2023-02-28T12:46:30.093Z,96461.06
2023-02-28T12:48:39.478Z,96470.75
2023-02-28T12:50:42.617Z,96463.41
2023-02-28T12:52:55.467Z,96461.03
2023-02-28T12:55:05.751Z,96429.13
2023-02-28T12:57:14.988Z,96397.06
2023-02-28T12:59:26.718Z,96397.88
2023-02-28T13:01:48.778Z,96451.44
2023-02-28T13:04:21.308Z,96451.16
2023-02-28T13:06:47.480Z,96448.63
2023-02-28T13:09:06.975Z,96429.94
2023-02-28T13:11:26.247Z,96449.19
2023-02-28T13:13:31.490Z,96434.56
2023-02-28T13:15:39.075Z,96441.44
2023-02-28T13:17:43.193Z,96429.69
2023-02-28T13:19:49.597Z,96444.50
2023-02-28T13:21:53.501Z,96441.19
2023-02-28T13:24:02.464Z,96441.47
2023-02-28T13:26:05.593Z,96443.91
2023-02-28T13:28:13.778Z,96438.59
2023-02-28T13:30:54.013Z,96441.97
2023-02-28T13:33:25.615Z,96433.84
2023-02-28T13:35:39.994Z,96432.66
2023-02-28T13:37:45.640Z,96376.56
2023-02-28T13:39:50.749Z,96437.47
2023-02-28T13:41:53.510Z,96439.75
2023-02-28T13:44:06.961Z,96431.50
2023-02-28T13:46:14.036Z,96438.81
2023-02-28T13:48:20.007Z,96441.81
2023-02-28T13:50:29.212Z,96325.34
2023-02-28T13:52:32.065Z,96440.22
2023-02-28T13:54:47.320Z,96424.44
2023-02-28T13:56:59.769Z,96443.78
2023-02-28T13:59:14.728Z,96444.63
2023-02-28T14:01:29.817Z,96425.72
2023-02-28T14:03:47.109Z,96443.56
2023-02-28T14:06:10.977Z,96439.25
2023-02-28T14:08:18.830Z,96442.41
2023-02-28T14:10:31.136Z,96444.03
2023-02-28T14:12:55.500Z,96439.25
2023-02-28T14:14:59.561Z,96432.00
2023-02-28T14:17:04.840Z,96434.38
2023-02-28T14:19:15.023Z,96439.38
2023-02-28T14:21:26.615Z,96435.38
2023-02-28T14:23:41.675Z,96430.28
2023-02-28T14:25:55.496Z,96436.22
2023-02-28T14:28:11.902Z,96403.66
2023-02-28T14:30:44.301Z,96430.28
2023-02-28T14:32:53.334Z,96430.25
2023-02-28T14:35:05.304Z,96432.47
2023-02-28T14:37:15.502Z,96428.66
2023-02-28T14:39:23.407Z,96429.56
2023-02-28T14:41:36.202Z,96409.50
2023-02-28T14:43:39.752Z,96425.16
2023-02-28T14:45:43.968Z,96442.25
2023-02-28T14:47:46.838Z,96439.22
2023-02-28T14:49:49.911Z,96352.56
2023-02-28T14:52:05.400Z,96436.72
2023-02-28T14:54:08.468Z,96449.41
2023-02-28T14:56:22.836Z,96437.63
2023-02-28T14:58:27.520Z,96436.59
2023-02-28T15:00:32.492Z,96377.31
2023-02-28T15:02:37.640Z,96434.81
2023-02-28T15:04:42.833Z,96435.84
2023-02-28T15:06:45.535Z,96445.56
2023-02-28T15:08:48.294Z,96430.28
2023-02-28T15:10:56.679Z,96434.91
2023-02-28T15:13:02.242Z,96437.41
2023-02-28T15:15:05.898Z,96435.88
2023-02-28T15:17:17.382Z,96436.78
2023-02-28T15:19:26.319Z,96442.06
2023-02-28T15:21:32.896Z,96427.84
2023-02-28T15:23:38.291Z,96371.94
2023-02-28T15:25:42.816Z,96424.53
2023-02-28T15:27:51.158Z,96420.94
2023-02-28T15:29:58.776Z,96433.88
2023-02-28T15:32:03.919Z,96436.16
2023-02-28T15:34:08.562Z,96436.81
2023-02-28T15:36:18.507Z,96433.91
2023-02-28T15:38:27.457Z,96438.91
2023-02-28T15:40:32.816Z,96438.56
2023-02-28T15:42:35.595Z,96440.06
2023-02-28T15:44:47.504Z,96430.38
2023-02-28T15:46:58.956Z,96352.94
2023-02-28T15:49:01.774Z,96435.63
2023-02-28T15:51:09.457Z,96446.13
2023-02-28T15:53:18.150Z,96438.47
2023-02-28T15:55:23.924Z,96448.72
2023-02-28T15:57:29.879Z,96443.69
2023-02-28T15:59:33.466Z,96443.34
2023-02-28T16:01:40.392Z,96437.28
2023-02-28T16:03:47.099Z,96442.53
2023-02-28T16:06:23.813Z,96438.28
2023-02-28T16:08:26.623Z,96433.94
2023-02-28T16:10:31.767Z,96438.69
2023-02-28T16:12:38.043Z,96441.47
2023-02-28T16:14:41.277Z,96438.78
2023-02-28T16:16:47.048Z,96299.75
2023-02-28T16:18:50.351Z,96227.03
2023-02-28T16:20:53.078Z,96447.16
2023-02-28T16:22:56.509Z,96432.94
2023-02-28T16:24:59.258Z,96393.38
2023-02-28T16:27:02.371Z,96441.22
2023-02-28T16:29:05.852Z,96447.59
2023-02-28T16:31:09.432Z,96436.13
2023-02-28T16:33:13.520Z,96445.38
2023-02-28T16:35:16.486Z,96454.19
2023-02-28T16:37:20.731Z,96453.00
2023-02-28T16:39:23.924Z,96455.22
2023-02-28T16:41:30.032Z,96409.72
2023-02-28T16:43:33.338Z,96460.34
2023-02-28T16:45:36.393Z,96428.34
2023-02-28T16:47:39.382Z,96401.66
2023-02-28T16:49:44.149Z,96460.47
2023-02-28T16:51:46.873Z,96456.53
2023-02-28T16:53:49.802Z,96466.38
2023-02-28T16:55:52.802Z,96464.91
2023-02-28T16:57:57.222Z,96366.97
2023-02-28T16:59:59.931Z,96465.94
2023-02-28T17:02:02.727Z,96471.59
2023-02-28T17:04:05.761Z,96467.38
2023-02-28T17:06:19.829Z,96472.66
2023-02-28T17:08:22.595Z,96474.50
2023-02-28T17:10:27.363Z,96483.13
2023-02-28T17:12:30.141Z,96393.22
2023-02-28T17:14:33.335Z,96482.31
2023-02-28T17:16:40.811Z,96479.56
2023-02-28T17:18:43.930Z,96482.91
2023-02-28T17:20:46.838Z,96454.53
2023-02-28T17:22:51.282Z,96486.06
2023-02-28T17:24:56.448Z,96485.25
2023-02-28T17:26:59.353Z,96500.25
2023-02-28T17:29:02.306Z,96473.25
2023-02-28T17:31:05.164Z,96491.13
2023-02-28T17:33:07.917Z,96498.47
2023-02-28T17:35:11.613Z,96504.22
2023-02-28T17:37:14.686Z,96496.91
2023-02-28T17:39:24.937Z,96512.69
2023-02-28T17:41:28.240Z,96508.78
2023-02-28T17:43:31.006Z,96515.84
2023-02-28T17:45:35.685Z,96461.19
2023-02-28T17:47:38.532Z,96511.25
2023-02-28T17:49:41.284Z,96517.47
2023-02-28T17:51:44.047Z,96519.88
2023-02-28T17:53:46.987Z,96519.59
2023-02-28T17:55:51.155Z,96515.94
2023-02-28T17:57:53.934Z,96500.69
2023-02-28T17:59:56.619Z,96509.84
2023-02-28T18:01:59.383Z,96519.66
2023-02-28T18:04:02.120Z,96514.97
2023-02-28T18:06:05.389Z,96517.75
2023-02-28T18:08:10.316Z,96520.38
2023-02-28T18:10:16.924Z,96527.06
2023-02-28T18:12:21.351Z,96520.75
2023-02-28T18:14:26.303Z,96525.72
2023-02-28T18:16:30.248Z,96492.00
2023-02-28T18:18:33.166Z,96486.97
2023-02-28T18:20:36.117Z,96521.06
2023-02-28T18:22:39.865Z,96524.44
2023-02-28T18:24:42.548Z,96531.38
2023-02-28T18:26:45.565Z,96523.97
2023-02-28T18:28:49.705Z,96529.19
2023-02-28T18:30:52.462Z,96531.47
2023-02-28T18:32:55.222Z,96495.28
2023-02-28T18:34:57.987Z,96494.00
2023-02-28T18:37:00.817Z,96527.25
2023-02-28T18:39:03.621Z,96537.66
2023-02-28T18:41:07.475Z,96491.31
2023-02-28T18:43:10.801Z,96541.69
2023-02-28T18:45:15.024Z,96460.25
2023-02-28T18:47:17.784Z,96490.75
2023-02-28T18:49:20.653Z,96532.47
2023-02-28T18:51:26.036Z,96509.44
2023-02-28T18:53:28.776Z,96524.97
2023-02-28T18:55:32.765Z,96500.28
2023-02-28T18:57:35.544Z,96475.13
2023-02-28T18:59:38.333Z,96522.75
2023-02-28T19:01:42.446Z,96449.41
2023-02-28T19:03:46.080Z,96518.81
2023-02-28T19:05:50.181Z,96456.81
2023-02-28T19:07:53.744Z,96530.25
2023-02-28T19:09:56.497Z,96523.00
2023-02-28T19:11:59.219Z,96506.00
2023-02-28T19:14:02.624Z,96519.25
2023-02-28T19:16:07.239Z,96515.78
2023-02-28T19:18:11.442Z,96522.06
2023-02-28T19:20:14.660Z,96523.78
2023-02-28T19:22:17.450Z,96520.25
2023-02-28T19:24:20.503Z,96530.91
2023-02-28T19:26:25.784Z,96530.81
2023-02-28T19:28:30.565Z,96529.63
2023-02-28T19:30:33.373Z,96526.78
2023-02-28T19:32:36.442Z,96517.22
2023-02-28T19:34:40.690Z,96498.09
2023-02-28T19:36:43.474Z,96518.63
2023-02-28T19:38:46.402Z,96526.50
2023-02-28T19:40:49.212Z,96533.63
2023-02-28T19:42:51.935Z,96532.41
2023-02-28T19:44:54.679Z,96535.75
2023-02-28T19:46:57.406Z,96527.00
2023-02-28T19:49:00.175Z,96529.94
2023-02-28T19:51:06.255Z,96507.66
2023-02-28T19:53:09.145Z,96512.81
2023-02-28T19:55:12.146Z,96521.63
2023-02-28T19:57:14.917Z,96530.09
2023-02-28T19:59:21.971Z,96527.50
2023-02-28T20:01:33.709Z,96536.28
2023-02-28T20:03:36.577Z,96538.19
2023-02-28T20:05:39.409Z,96458.44
2023-02-28T20:07:43.697Z,96537.94
2023-02-28T20:09:46.712Z,96528.69
2023-02-28T20:11:50.538Z,96474.56
2023-02-28T20:13:54.310Z,96530.03
2023-02-28T20:16:00.284Z,96505.19
2023-02-28T20:18:03.141Z,96512.19
2023-02-28T20:20:08.954Z,96418.94
2023-02-28T20:22:12.219Z,96517.03
2023-02-28T20:24:16.471Z,96432.19
2023-02-28T20:26:20.185Z,96447.72
2023-02-28T20:28:22.941Z,96517.22
2023-02-28T20:30:25.913Z,96509.56
2023-02-28T20:32:28.885Z,96389.34
2023-02-28T20:34:31.648Z,96512.22
2023-02-28T20:36:34.472Z,96518.84
2023-02-28T20:38:37.592Z,96486.56
2023-02-28T20:40:41.749Z,96517.72
2023-02-28T20:42:44.569Z,96431.13
2023-02-28T20:44:47.324Z,96481.81
2023-02-28T20:46:50.074Z,96512.56
2023-02-28T20:48:52.908Z,96490.84
2023-02-28T20:50:57.581Z,96411.69
2023-02-28T20:53:00.343Z,96516.78
2023-02-28T20:55:03.113Z,96512.34
2023-02-28T20:57:07.189Z,96474.69
2023-02-28T20:59:11.954Z,96457.94
2023-02-28T21:01:17.155Z,96513.03
2023-02-28T21:03:20.037Z,96498.53
2023-02-28T21:05:22.958Z,96372.38
2023-02-28T21:07:26.335Z,96489.38
2023-02-28T21:09:29.081Z,96501.03
2023-02-28T21:11:35.013Z,96514.22
2023-02-28T21:13:39.570Z,96447.16
2023-02-28T21:15:42.389Z,96513.25
2023-02-28T21:17:48.014Z,96513.56
2023-02-28T21:19:50.800Z,96384.09
2023-02-28T21:21:56.212Z,96510.91
2023-02-28T21:23:59.062Z,96514.59
2023-02-28T21:26:05.807Z,96516.25
2023-02-28T21:28:08.522Z,96506.47
2023-02-28T21:30:13.256Z,96511.09
2023-02-28T21:32:16.158Z,96478.09
2023-02-28T21:34:19.197Z,96521.00
2023-02-28T21:36:24.614Z,96517.41
2023-02-28T21:38:27.385Z,96357.25
2023-02-28T21:40:30.117Z,96507.34
2023-02-28T21:42:33.110Z,96525.69
2023-02-28T21:44:35.859Z,96503.41
2023-02-28T21:46:40.121Z,96500.13
2023-02-28T21:48:43.304Z,96454.63
2023-02-28T21:50:56.534Z,96524.31
2023-02-28T21:52:59.303Z,96521.38
2023-02-28T21:55:02.066Z,96512.44
2023-02-28T21:57:05.410Z,96440.16
2023-02-28T21:59:09.696Z,96518.75
2023-02-28T22:01:14.202Z,96409.97
2023-02-28T22:03:18.274Z,96512.59
2023-02-28T22:05:21.327Z,96420.50
2023-02-28T22:07:24.086Z,96508.16
2023-02-28T22:09:27.983Z,96509.09
2023-02-28T22:11:30.757Z,96435.00
2023-02-28T22:13:33.473Z,96511.78
2023-02-28T22:15:37.210Z,96506.50
2023-02-28T22:17:40.063Z,95878.69
2023-02-28T22:19:44.527Z,96515.75
2023-02-28T22:21:47.591Z,96512.31
2023-02-28T22:23:50.986Z,96500.44
2023-02-28T22:25:54.703Z,96508.34
2023-02-28T22:27:57.416Z,96499.94
2023-02-28T22:30:00.219Z,96510.63
2023-02-28T22:32:03.016Z,96420.84
2023-02-28T22:34:08.679Z,96504.91
2023-02-28T22:36:14.762Z,96476.88
2023-02-28T22:38:17.604Z,96498.31
2023-02-28T22:40:20.597Z,96456.44
2023-02-28T22:42:23.411Z,96500.47
2023-02-28T22:44:26.183Z,96499.44
2023-02-28T22:46:31.144Z,96453.00
2023-02-28T22:48:34.884Z,96338.84
2023-02-28T22:50:37.720Z,96409.81
2023-02-28T22:52:42.457Z,96493.22
2023-02-28T22:54:45.225Z,96363.22
2023-02-28T22:56:48.043Z,96495.69
2023-02-28T22:58:51.391Z,96412.28
2023-02-28T23:00:55.684Z,96487.44
2023-02-28T23:02:58.451Z,96388.56
2023-02-28T23:05:01.229Z,96491.09
2023-02-28T23:07:04.666Z,96480.88
2023-02-28T23:09:12.104Z,96431.88
2023-02-28T23:11:20.008Z,96461.06
2023-02-28T23:13:23.059Z,96477.22
2023-02-28T23:15:25.833Z,96485.91
2023-02-28T23:17:28.608Z,96494.50
2023-02-28T23:19:32.314Z,96499.31
2023-02-28T23:21:35.567Z,96495.84
2023-02-28T23:23:38.319Z,96503.25
2023-02-28T23:25:43.487Z,96412.41
2023-02-28T23:27:46.255Z,96484.59
2023-02-28T23:29:49.026Z,96495.00
2023-02-28T23:31:52.634Z,96501.25
2023-02-28T23:33:56.815Z,96432.47
2023-02-28T23:36:03.969Z,96497.94
2023-02-28T23:38:06.721Z,96501.91
2023-02-28T23:40:13.038Z,96503.75
2023-02-28T23:42:17.176Z,96508.84
2023-02-28T23:44:20.161Z,96438.06
2023-02-28T23:46:23.353Z,96500.63
2023-02-28T23:48:26.158Z,96498.63
2023-02-28T23:50:28.863Z,96512.94
2023-02-28T23:52:31.977Z,96492.50
2023-02-28T23:54:35.419Z,96399.59
2023-02-28T23:56:38.242Z,96501.22
2023-02-28T23:58:42.749Z,96511.78
